Campbell AAF (Fort Campbell) Air Field Fort Campbell, Hopkinsville US
ICAO: KHOP
IATA: HOP
Category: Medium
Scheduled Services: No

Elevation: 573 ft
TransAlt. 18000 ft.

Airport Communications:
APP:118.1
ATIS:125.175
CLNC DEL:138.8
DEP:118.1
GND:121.8
PMSV METRO:34.33
EAGLE CON:65.2
PTD:130.65
TWR:120.9

KHOP Zoom In..

If you have problems with the map follow the link
https://www.worldairports.se/pages/airport.php?
ICAO=KHOP

Runways:

(A) RW 05 length 11822 ft width 200 ft
---- / hdg 45

(B) RW 18 length 4001 ft width 155 ft
---- / hdg 180

(C) RW 23 length 11822 ft width 200 ft
ILS 111.90 / hdg 225

(D) RW 36 length 4001 ft width 155 ft
---- / hdg 360

Location; KHOP
Day. 29 / Time. 10.28 Zulu
* Altimeter: 30.05
* Temperature: 02° c. 35.6°f.
* Wind from: 050° Speed 07 kn.
Dewpoint: 02° c.
Visibility: 9 Statute Miles.
Clouds: Broken 2500 ft.
Clouds: Overcast 8000 ft.

KHOP 291028Z AUTO 05007KT 9SM BKN025 OVC080 02/02 A3005 RMK AO2 DZE00DZB12E28 SLP182


Wind From 050°
Speed 07 kn.

 
 
jpsmedia worldairports.se 2020   terms of use